Time;durP1;ratioP1;P1;durP2;ratioP2;P2;SDS_P1;SDS_P2;PMS_P1;PMS_P2;Temp;Humidity;BMP_temperature;BMP_pressure;BME280_temperature;BME280_humidity;BME280_pressure;Samples;Min_cycle;Max_cycle;Signal;HPM_P1;HPM_P2
2023/01/05 07:48:07;;;;;;;3.60;3.20;;;;;;;5.79;100.00;96872.86;1870011;75;28568;-61
2023/01/05 07:50:34;;;;;;;3.92;2.45;;;;;;;5.78;100.00;96871.27;1807473;78;20967;-57
2023/01/05 07:53:01;;;;;;;2.47;1.65;;;;;;;5.84;100.00;96870.67;1827854;78;21151;-60
2023/01/05 07:55:27;;;;;;;2.00;1.70;;;;;;;5.92;100.00;96870.84;1786707;80;20956;-62
2023/01/05 07:57:54;;;;;;;2.15;1.52;;;;;;;6.02;100.00;96862.73;1789572;78;20902;-60
2023/01/05 08:00:21;;;;;;;1.72;1.30;;;;;;;6.11;100.00;96858.87;1780569;80;20939;-57
2023/01/05 08:02:47;;;;;;;1.35;1.25;;;;;;;6.19;100.00;96872.85;1778514;80;20915;-61
2023/01/05 08:05:17;;;;;;;1.75;1.52;;;;;;;6.28;100.00;96845.85;1771909;81;21071;-58
2023/01/05 08:07:44;;;;;;;2.90;1.92;;;;;;;6.35;100.00;96838.83;1767473;80;21490;-57
2023/01/05 08:10:29;;;;;;;1.70;1.60;;;;;;;6.43;100.00;96866.88;1774560;79;21022;-57
2023/01/05 08:15:51;;;;;;;3.58;1.92;;;;;;;6.58;100.00;96849.34;1767757;80;21402;-58
2023/01/05 08:18:18;;;;;;;2.17;1.47;;;;;;;6.66;100.00;96860.66;1747701;81;21223;-61
2023/01/05 08:20:53;;;;;;;2.95;1.57;;;;;;;6.71;100.00;96844.59;1756235;79;20881;-58
2023/01/05 08:23:23;;;;;;;2.55;1.95;;;;;;;6.75;100.00;96852.25;1778503;80;20893;-61
2023/01/05 08:25:53;;;;;;;2.90;1.65;;;;;;;6.79;100.00;96845.25;1764620;79;20991;-61
2023/01/05 08:28:20;;;;;;;2.10;1.80;;;;;;;6.83;100.00;96847.56;1773976;80;20884;-59
2023/01/05 08:30:46;;;;;;;2.40;1.90;;;;;;;6.86;100.00;96836.34;1770270;80;21109;-58
2023/01/05 08:33:13;;;;;;;1.75;1.65;;;;;;;6.88;100.00;96854.14;1769480;80;20983;-61
2023/01/05 08:35:41;;;;;;;2.22;2.02;;;;;;;6.91;100.00;96839.45;1770948;79;20927;-58
2023/01/05 08:38:09;;;;;;;3.55;2.50;;;;;;;6.93;100.00;96847.93;1773822;80;21098;-60
2023/01/05 08:40:39;;;;;;;2.92;1.90;;;;;;;6.95;100.00;96852.98;1774451;79;20975;-60
2023/01/05 08:43:11;;;;;;;2.77;1.82;;;;;;;6.95;100.00;96862.30;1778712;80;21735;-62
2023/01/05 08:45:40;;;;;;;2.58;1.80;;;;;;;6.95;100.00;96856.41;1772914;79;20883;-62
2023/01/05 08:48:09;;;;;;;2.87;1.98;;;;;;;6.97;100.00;96850.81;1764583;80;20909;-58
2023/01/05 08:50:37;;;;;;;3.15;2.42;;;;;;;6.95;100.00;96837.77;1761755;79;20955;-60
2023/01/05 08:53:05;;;;;;;2.33;1.80;;;;;;;6.95;100.00;96843.66;1766208;81;21467;-63
2023/01/05 08:55:34;;;;;;;2.90;1.90;;;;;;;6.94;100.00;96836.21;1761406;81;22218;-59
2023/01/05 08:58:04;;;;;;;2.72;2.05;;;;;;;6.96;100.00;96851.88;1754147;81;21480;-62
2023/01/05 09:00:38;;;;;;;2.42;1.90;;;;;;;6.98;100.00;96833.73;1752252;79;20967;-60
2023/01/05 09:03:08;;;;;;;3.50;2.25;;;;;;;6.99;100.00;96830.00;1765763;80;21035;-62
2023/01/05 09:05:37;;;;;;;3.60;2.27;;;;;;;7.00;100.00;96834.22;1767386;80;20985;-61
2023/01/05 09:08:04;;;;;;;2.98;2.15;;;;;;;7.01;100.00;96834.48;1762535;79;21098;-58
2023/01/05 09:10:31;;;;;;;2.35;2.12;;;;;;;7.03;100.00;96836.31;1765132;81;21060;-62
2023/01/05 09:12:58;;;;;;;3.20;2.10;;;;;;;7.01;100.00;96834.48;1764909;81;20976;-60
2023/01/05 09:15:24;;;;;;;2.90;2.17;;;;;;;6.97;100.00;96832.97;1765114;81;21542;-58
2023/01/05 09:17:51;;;;;;;3.62;3.12;;;;;;;6.94;100.00;96826.89;1764843;81;21083;-61
2023/01/05 09:20:18;;;;;;;3.27;2.67;;;;;;;6.94;100.00;96819.44;1764084;81;21368;-60
2023/01/05 09:22:44;;;;;;;2.87;2.27;;;;;;;6.95;100.00;96811.72;1758518;81;21458;-58
2023/01/05 09:25:11;;;;;;;2.58;2.10;;;;;;;6.93;100.00;96805.88;1753401;81;20858;-60
2023/01/05 09:27:38;;;;;;;3.12;2.20;;;;;;;6.93;100.00;96831.95;1752851;81;21082;-60
2023/01/05 09:30:06;;;;;;;3.40;2.55;;;;;;;6.94;100.00;96820.77;1758872;79;21509;-59
2023/01/05 09:32:38;;;;;;;3.30;2.60;;;;;;;6.93;100.00;96809.86;1755229;81;21637;-61
2023/01/05 09:35:06;;;;;;;2.47;2.12;;;;;;;6.95;100.00;96807.72;1751261;81;20995;-59
2023/01/05 09:37:32;;;;;;;3.33;2.30;;;;;;;6.98;100.00;96825.75;1747051;82;21024;-58
2023/01/05 09:39:59;;;;;;;4.53;2.87;;;;;;;7.01;100.00;96816.64;1748088;79;20877;-60
2023/01/05 09:42:29;;;;;;;2.72;2.50;;;;;;;7.04;100.00;96801.95;1748119;81;20944;-62
2023/01/05 09:44:58;;;;;;;3.10;2.45;;;;;;;7.07;100.00;96802.67;1772064;80;21063;-62
2023/01/05 09:47:41;;;;;;;2.67;2.47;;;;;;;7.10;100.00;96810.08;1772110;81;20972;-59
2023/01/05 09:50:20;;;;;;;3.72;2.58;;;;;;;7.10;100.00;96807.42;1748161;82;20985;-63
2023/01/05 09:52:48;;;;;;;3.30;2.80;;;;;;;7.12;100.00;96810.56;1737408;81;20881;-65
2023/01/05 09:55:16;;;;;;;3.70;3.02;;;;;;;7.15;100.00;96800.66;1803884;79;20885;-59
2023/01/05 09:57:53;;;;;;;4.80;3.17;;;;;;;7.15;100.00;96792.14;1800020;77;21469;-61
2023/01/05 10:00:20;;;;;;;3.67;3.12;;;;;;;7.15;100.00;96796.13;1800235;79;20953;-60
2023/01/05 10:02:58;;;;;;;2.90;2.55;;;;;;;7.18;100.00;96809.40;1769746;80;21505;-62
2023/01/05 10:05:26;;;;;;;3.15;2.83;;;;;;;7.20;100.00;96815.22;1754245;80;20951;-59
2023/01/05 10:08:06;;;;;;;4.90;3.42;;;;;;;7.23;100.00;96807.41;1764362;80;21058;-58
